createdAt,value
2022-12-09T00:01:19.510Z,36.40
2022-12-09T00:03:47.197Z,34.60
2022-12-09T00:06:17.434Z,38.20
2022-12-09T00:08:45.065Z,31.30
2022-12-09T00:11:13.432Z,43.70
2022-12-09T00:13:41.145Z,36.20
2022-12-09T00:16:10.750Z,48.00
2022-12-09T00:18:38.357Z,44.00
2022-12-09T00:21:34.222Z,38.30
2022-12-09T00:26:29.444Z,38.70
2022-12-09T00:28:57.253Z,33.70
2022-12-09T00:31:27.119Z,35.30
2022-12-09T00:33:59.874Z,34.90
2022-12-09T00:36:28.500Z,31.20
2022-12-09T00:38:57.253Z,39.20
2022-12-09T00:41:24.209Z,47.20
2022-12-09T00:43:51.455Z,49.40
2022-12-09T00:46:18.591Z,49.90
2022-12-09T00:48:46.361Z,45.40
2022-12-09T00:51:16.631Z,49.00
2022-12-09T00:53:43.552Z,47.80
2022-12-09T00:56:10.556Z,51.20
2022-12-09T00:58:37.297Z,49.70
2022-12-09T01:01:04.152Z,48.40
2022-12-09T01:03:31.211Z,53.20
2022-12-09T01:05:58.089Z,46.10
2022-12-09T01:08:25.202Z,54.00
2022-12-09T01:10:52.259Z,58.20
2022-12-09T01:13:19.095Z,52.80
2022-12-09T01:15:47.565Z,51.80
2022-12-09T01:18:14.401Z,44.50
2022-12-09T01:20:41.272Z,46.50
2022-12-09T01:23:08.557Z,42.00
2022-12-09T01:25:38.064Z,44.40
2022-12-09T01:28:05.079Z,43.00
2022-12-09T01:30:32.106Z,42.20
2022-12-09T01:32:58.850Z,43.00
2022-12-09T01:35:26.496Z,44.40
2022-12-09T01:37:53.213Z,45.30
2022-12-09T01:40:20.239Z,39.80
2022-12-09T01:42:50.061Z,41.50
2022-12-09T01:45:21.359Z,38.70
2022-12-09T01:48:00.364Z,45.70
2022-12-09T01:50:28.925Z,40.80
2022-12-09T01:52:56.877Z,43.50
2022-12-09T01:55:25.517Z,46.00
2022-12-09T01:57:53.606Z,44.10
2022-12-09T02:00:20.925Z,43.80
2022-12-09T02:02:51.590Z,40.10
2022-12-09T02:05:21.892Z,37.80
2022-12-09T02:07:53.808Z,35.40
2022-12-09T02:10:22.555Z,38.20
2022-12-09T02:13:36.609Z,39.30
2022-12-09T02:16:09.676Z,40.30
2022-12-09T02:18:45.980Z,33.70
2022-12-09T02:21:28.995Z,35.70
2022-12-09T02:24:08.311Z,41.50
2022-12-09T02:26:44.056Z,35.50
2022-12-09T02:29:37.381Z,35.60
2022-12-09T02:32:22.950Z,38.80
2022-12-09T02:35:13.022Z,38.40
2022-12-09T02:37:56.550Z,40.00
2022-12-09T02:40:35.489Z,42.30
2022-12-09T02:43:06.560Z,43.60
2022-12-09T02:45:36.505Z,46.80
2022-12-09T02:48:05.207Z,39.90
2022-12-09T02:50:36.759Z,40.50
2022-12-09T02:53:09.896Z,46.80
2022-12-09T02:55:40.007Z,44.40
2022-12-09T02:58:06.925Z,43.20
2022-12-09T03:00:34.986Z,45.20
2022-12-09T03:03:04.745Z,43.30
2022-12-09T03:05:55.729Z,46.50
2022-12-09T03:08:28.512Z,44.40
2022-12-09T03:11:07.128Z,48.10
2022-12-09T03:13:51.256Z,40.00
2022-12-09T03:16:36.651Z,43.40
2022-12-09T03:21:40.679Z,40.50
2022-12-09T03:24:09.784Z,31.90
2022-12-09T03:26:38.360Z,36.20
2022-12-09T03:29:09.261Z,38.40
2022-12-09T03:31:38.233Z,35.10
2022-12-09T03:34:08.539Z,37.80
2022-12-09T03:36:40.956Z,41.90
2022-12-09T03:39:16.503Z,39.60
2022-12-09T03:41:47.705Z,35.70
2022-12-09T03:44:25.441Z,41.90
2022-12-09T03:46:52.685Z,38.80
2022-12-09T03:49:19.770Z,35.40
2022-12-09T03:51:56.619Z,39.40
2022-12-09T03:54:33.364Z,35.70
2022-12-09T03:57:01.357Z,32.90
2022-12-09T03:59:32.881Z,36.10
2022-12-09T04:02:03.524Z,34.40
2022-12-09T04:04:30.586Z,35.50
2022-12-09T04:06:58.119Z,32.90
2022-12-09T04:09:25.313Z,27.00
2022-12-09T04:11:52.464Z,32.00
2022-12-09T04:14:19.353Z,35.80
2022-12-09T04:16:46.335Z,36.20
2022-12-09T04:19:13.211Z,36.60
2022-12-09T04:21:40.440Z,29.00
2022-12-09T04:24:07.978Z,30.20
2022-12-09T04:26:35.673Z,32.00
2022-12-09T04:29:03.104Z,31.50
2022-12-09T04:31:29.986Z,29.80
2022-12-09T04:33:56.950Z,29.30
2022-12-09T04:36:24.377Z,29.90
2022-12-09T04:38:51.725Z,33.00
2022-12-09T04:41:19.604Z,33.40
2022-12-09T04:43:48.734Z,36.30
2022-12-09T04:46:17.967Z,38.30
2022-12-09T04:48:45.743Z,45.30
2022-12-09T04:51:15.502Z,43.20
2022-12-09T04:53:43.374Z,39.90
2022-12-09T04:56:13.845Z,39.50
2022-12-09T04:58:41.026Z,39.10
2022-12-09T05:01:13.724Z,42.40
2022-12-09T05:03:41.340Z,38.50
2022-12-09T05:06:12.912Z,63.00
2022-12-09T05:08:41.690Z,44.20
2022-12-09T05:11:10.019Z,38.30
2022-12-09T05:13:37.558Z,36.40
2022-12-09T05:16:15.400Z,31.60
2022-12-09T05:18:45.144Z,29.00
2022-12-09T05:21:16.517Z,29.70
2022-12-09T05:23:44.413Z,32.90
2022-12-09T05:26:15.280Z,58.90
2022-12-09T05:28:42.480Z,65.30
2022-12-09T05:31:14.671Z,49.30
2022-12-09T05:33:43.138Z,61.00
2022-12-09T05:36:13.166Z,48.90
2022-12-09T05:38:41.094Z,61.80
2022-12-09T05:41:08.265Z,55.30
2022-12-09T05:43:36.889Z,46.10
2022-12-09T05:46:06.052Z,43.50
2022-12-09T05:48:34.663Z,41.90
2022-12-09T05:51:03.586Z,40.40
2022-12-09T05:53:32.135Z,39.10
2022-12-09T05:55:59.235Z,35.60
2022-12-09T05:58:26.400Z,30.00
2022-12-09T06:00:56.392Z,28.90
2022-12-09T06:03:24.098Z,51.90
2022-12-09T06:14:00.361Z,87.40
2022-12-09T06:16:59.531Z,63.80
2022-12-09T06:19:36.874Z,66.10
2022-12-09T06:22:15.683Z,99.90
2022-12-09T06:25:06.982Z,73.50
2022-12-09T06:28:11.182Z,77.50
2022-12-09T06:35:49.897Z,61.30
2022-12-09T06:42:27.085Z,40.50
2022-12-09T06:44:54.521Z,53.40
2022-12-09T06:47:21.499Z,73.20
2022-12-09T06:50:27.902Z,101.30
2022-12-09T06:54:03.773Z,118.00
2022-12-09T06:57:28.035Z,88.00
2022-12-09T07:04:06.294Z,139.20
2022-12-09T07:11:14.714Z,42.20
2022-12-09T07:14:22.299Z,46.70
2022-12-09T07:17:44.680Z,54.80
2022-12-09T07:21:04.476Z,60.90
2022-12-09T07:25:26.204Z,47.70
2022-12-09T07:30:26.254Z,43.00
2022-12-09T07:49:27.619Z,43.90
2022-12-09T07:57:31.863Z,87.80
2022-12-09T08:08:17.746Z,63.60
2022-12-09T08:11:35.175Z,49.50
2022-12-09T08:14:51.299Z,50.20
2022-12-09T08:17:41.952Z,49.60
2022-12-09T08:20:42.040Z,44.60
2022-12-09T08:23:25.005Z,46.50
2022-12-09T08:26:30.823Z,36.90
2022-12-09T08:29:26.194Z,33.40
2022-12-09T08:32:23.303Z,39.10
2022-12-09T08:35:17.685Z,39.20
2022-12-09T08:39:03.574Z,35.20
2022-12-09T08:42:05.071Z,41.60
2022-12-09T08:45:04.751Z,44.80
2022-12-09T08:47:32.084Z,47.90
2022-12-09T08:50:00.892Z,45.90
2022-12-09T08:53:19.760Z,73.80
2022-12-09T08:56:07.917Z,143.60
2022-12-09T08:58:45.999Z,97.50
2022-12-09T09:01:25.145Z,52.20
2022-12-09T09:03:56.680Z,37.10
2022-12-09T09:06:24.985Z,41.00
2022-12-09T09:08:58.268Z,30.70
2022-12-09T09:11:48.864Z,29.60
2022-12-09T09:14:27.821Z,26.40
2022-12-09T09:16:55.281Z,42.20
2022-12-09T09:19:25.764Z,28.60
2022-12-09T09:21:58.720Z,23.10
2022-12-09T09:24:56.260Z,21.10
2022-12-09T09:27:55.973Z,23.90
2022-12-09T09:30:22.923Z,23.90
2022-12-09T09:32:50.463Z,25.60
2022-12-09T09:35:17.406Z,25.90
2022-12-09T09:37:45.253Z,23.70
2022-12-09T09:40:12.897Z,22.30
2022-12-09T09:42:47.832Z,29.30
2022-12-09T09:45:19.314Z,20.00
2022-12-09T09:47:54.405Z,25.40
2022-12-09T09:50:37.814Z,23.50
2022-12-09T09:53:24.044Z,23.70
2022-12-09T09:55:58.282Z,25.00
2022-12-09T09:58:48.791Z,23.30
2022-12-09T10:01:18.085Z,25.20
2022-12-09T10:03:52.170Z,25.00
2022-12-09T10:06:35.285Z,23.00
2022-12-09T10:09:24.061Z,27.80
2022-12-09T10:12:00.546Z,23.60
2022-12-09T10:14:32.313Z,26.50
2022-12-09T10:17:15.666Z,23.70
2022-12-09T10:19:48.139Z,24.70
2022-12-09T10:22:21.464Z,23.90
2022-12-09T10:25:07.380Z,23.80
2022-12-09T10:28:17.430Z,26.40
2022-12-09T10:30:45.318Z,21.30
2022-12-09T10:33:14.883Z,26.50
2022-12-09T10:35:42.382Z,21.10
2022-12-09T10:38:20.268Z,22.60
2022-12-09T10:40:57.075Z,23.90
2022-12-09T10:43:39.246Z,23.90
2022-12-09T10:46:21.740Z,24.40
2022-12-09T10:48:49.755Z,23.10
2022-12-09T10:51:30.234Z,24.70
2022-12-09T10:54:13.381Z,24.40
2022-12-09T10:57:03.650Z,25.30
2022-12-09T10:59:32.091Z,23.40
2022-12-09T11:02:02.017Z,23.50
2022-12-09T11:04:32.861Z,24.60
2022-12-09T11:07:13.102Z,26.50
2022-12-09T11:09:49.305Z,24.00
2022-12-09T11:12:39.921Z,29.10
2022-12-09T11:15:10.984Z,22.60
2022-12-09T11:17:42.422Z,25.10
2022-12-09T11:20:21.750Z,23.40
2022-12-09T11:23:19.869Z,25.40
2022-12-09T11:26:20.844Z,25.60
2022-12-09T11:29:18.603Z,24.20
2022-12-09T11:31:47.199Z,22.60
2022-12-09T11:34:19.880Z,29.20
2022-12-09T11:36:52.918Z,24.80
2022-12-09T11:39:29.202Z,25.90
2022-12-09T11:42:45.176Z,22.80
2022-12-09T11:45:49.184Z,26.10
2022-12-09T11:49:15.253Z,27.30
2022-12-09T11:52:27.533Z,22.90
2022-12-09T12:02:54.021Z,29.40
2022-12-09T12:06:02.199Z,24.50
2022-12-09T12:09:14.990Z,23.60
2022-12-09T12:13:18.413Z,27.40
2022-12-09T12:21:35.518Z,26.30
2022-12-09T12:33:59.751Z,26.20
2022-12-09T12:37:04.348Z,29.20
2022-12-09T12:40:43.402Z,28.90
2022-12-09T12:44:32.006Z,27.10
2022-12-09T12:48:01.378Z,32.60
2022-12-09T12:51:07.863Z,28.30
2022-12-09T12:54:46.342Z,27.20
2022-12-09T12:58:19.005Z,26.00
2022-12-09T13:01:24.769Z,24.40
2022-12-09T13:05:10.789Z,26.90
2022-12-09T13:21:21.136Z,30.00
2022-12-09T13:25:22.575Z,28.50
2022-12-09T13:28:52.714Z,54.40
2022-12-09T13:32:44.566Z,40.80
2022-12-09T13:36:30.358Z,31.00
2022-12-09T13:40:55.009Z,28.10
2022-12-09T13:44:45.673Z,27.30
2022-12-09T13:48:27.996Z,42.40
2022-12-09T13:51:41.750Z,32.50
2022-12-09T13:55:40.799Z,38.90
2022-12-09T14:04:00.190Z,86.20
2022-12-09T14:07:56.420Z,66.80
2022-12-09T14:11:57.338Z,68.30
2022-12-09T14:19:50.139Z,40.60
2022-12-09T14:23:33.695Z,38.90
2022-12-09T14:44:23.696Z,50.70
2022-12-09T14:46:54.594Z,63.70
2022-12-09T14:49:27.842Z,51.40
2022-12-09T14:52:00.832Z,53.40
2022-12-09T14:54:38.569Z,51.20
2022-12-09T14:57:19.389Z,54.50
2022-12-09T14:59:53.061Z,43.20
2022-12-09T15:02:30.190Z,37.90
2022-12-09T15:05:01.629Z,37.70
2022-12-09T15:07:34.466Z,36.00
2022-12-09T15:10:17.488Z,36.60
2022-12-09T15:12:49.621Z,39.30
2022-12-09T15:15:39.805Z,40.60
2022-12-09T15:18:22.042Z,56.10
2022-12-09T15:20:57.007Z,38.60
2022-12-09T15:25:59.115Z,40.30
2022-12-09T15:28:32.483Z,40.40
2022-12-09T15:31:02.287Z,48.30
2022-12-09T15:33:38.875Z,52.70
2022-12-09T15:36:21.869Z,58.40
2022-12-09T15:38:58.398Z,56.60
2022-12-09T15:41:59.638Z,55.10
2022-12-09T15:44:32.982Z,58.20
2022-12-09T15:47:09.853Z,68.20
2022-12-09T15:49:57.785Z,82.60
2022-12-09T15:52:31.607Z,77.60
2022-12-09T15:55:06.966Z,91.50
2022-12-09T15:57:36.038Z,83.80
2022-12-09T16:00:05.516Z,69.20
2022-12-09T16:02:38.196Z,80.10
2022-12-09T16:05:09.707Z,69.90
2022-12-09T16:07:38.500Z,87.80
2022-12-09T16:10:10.109Z,77.80
2022-12-09T16:12:40.271Z,71.40
2022-12-09T16:15:12.509Z,65.20
2022-12-09T16:17:55.630Z,75.70
2022-12-09T16:20:34.828Z,70.80
2022-12-09T16:23:06.214Z,66.00
2022-12-09T16:25:43.397Z,69.20
2022-12-09T16:28:24.327Z,73.90
2022-12-09T16:30:58.856Z,85.20
2022-12-09T16:33:29.197Z,95.30
2022-12-09T16:36:05.208Z,103.30
2022-12-09T16:38:35.638Z,110.50
2022-12-09T16:41:08.363Z,122.50
2022-12-09T16:43:52.184Z,133.30
2022-12-09T16:46:20.300Z,136.40
2022-12-09T16:48:49.788Z,101.50
2022-12-09T16:51:25.035Z,80.00
2022-12-09T16:53:54.452Z,79.20
2022-12-09T16:56:28.276Z,77.00
2022-12-09T16:58:56.991Z,81.00
2022-12-09T17:01:34.099Z,76.70
2022-12-09T17:04:05.731Z,102.50
2022-12-09T17:06:33.867Z,68.60
2022-12-09T17:09:02.006Z,71.70
2022-12-09T17:11:30.231Z,74.90
2022-12-09T17:13:58.488Z,79.20
2022-12-09T17:16:26.954Z,76.70
2022-12-09T17:18:55.384Z,81.60
2022-12-09T17:21:23.527Z,81.00
2022-12-09T17:23:51.698Z,90.00
2022-12-09T17:26:20.800Z,88.90
2022-12-09T17:28:50.304Z,86.50
2022-12-09T17:31:21.881Z,83.40
2022-12-09T17:33:50.966Z,89.10
2022-12-09T17:36:19.685Z,92.90
2022-12-09T17:38:49.500Z,85.20
2022-12-09T17:41:20.996Z,84.90
2022-12-09T17:43:49.544Z,93.30
2022-12-09T17:46:18.025Z,87.10
2022-12-09T17:48:46.197Z,93.70
2022-12-09T17:51:18.182Z,93.30
2022-12-09T17:53:47.638Z,92.10
2022-12-09T17:56:20.039Z,85.50
2022-12-09T17:58:58.472Z,84.70
2022-12-09T18:01:27.464Z,82.00
2022-12-09T18:04:01.586Z,106.40
2022-12-09T18:06:34.659Z,96.60
2022-12-09T18:09:05.265Z,96.00
2022-12-09T18:11:34.008Z,95.20
2022-12-09T18:14:03.164Z,99.70
2022-12-09T18:16:31.844Z,100.90
2022-12-09T18:19:10.406Z,92.10
2022-12-09T18:21:39.884Z,92.70
2022-12-09T18:24:08.847Z,80.40
2022-12-09T18:26:41.572Z,89.30
2022-12-09T18:29:12.183Z,89.70
2022-12-09T18:31:40.983Z,84.00
2022-12-09T18:34:09.051Z,90.40
2022-12-09T18:36:37.340Z,83.60
2022-12-09T18:39:05.510Z,77.70
2022-12-09T18:41:34.572Z,76.80
2022-12-09T18:44:05.466Z,87.80
2022-12-09T18:46:37.097Z,84.50
2022-12-09T18:49:08.325Z,85.20
2022-12-09T18:51:37.260Z,78.50
2022-12-09T18:54:07.215Z,80.10
2022-12-09T18:56:37.185Z,77.40
2022-12-09T18:59:07.031Z,73.50
2022-12-09T19:01:40.444Z,70.80
2022-12-09T19:04:34.433Z,78.80
2022-12-09T19:07:04.489Z,71.90
2022-12-09T19:09:34.950Z,80.70
2022-12-09T19:12:37.778Z,73.80
2022-12-09T19:14:53.216Z,66.60
2022-12-09T19:17:22.009Z,73.70
2022-12-09T19:19:54.132Z,70.20
2022-12-09T19:24:54.721Z,74.30
2022-12-09T19:36:10.964Z,72.10
2022-12-09T19:51:24.509Z,61.50
2022-12-09T19:54:02.626Z,60.90
2022-12-09T19:56:33.807Z,52.00
2022-12-09T19:59:16.333Z,50.00
2022-12-09T20:01:48.476Z,48.90
2022-12-09T20:04:48.842Z,51.10
2022-12-09T20:07:20.110Z,48.70
2022-12-09T20:09:53.788Z,45.30
2022-12-09T20:12:25.340Z,46.90
2022-12-09T20:15:00.787Z,53.10
2022-12-09T20:17:32.219Z,53.40
2022-12-09T20:20:07.386Z,52.50
2022-12-09T20:22:45.342Z,55.40
2022-12-09T20:25:23.063Z,52.30
2022-12-09T20:27:53.881Z,59.00
2022-12-09T20:32:59.332Z,60.90
2022-12-09T20:35:28.775Z,66.10
2022-12-09T20:37:57.422Z,57.90
2022-12-09T20:40:27.675Z,58.30
2022-12-09T20:43:03.869Z,58.50
2022-12-09T20:45:39.480Z,61.20
2022-12-09T20:48:12.822Z,61.20
2022-12-09T20:50:52.519Z,64.10
2022-12-09T20:53:28.337Z,63.90
2022-12-09T20:56:01.700Z,66.40
2022-12-09T20:58:32.698Z,65.70
2022-12-09T21:01:09.016Z,67.80
2022-12-09T21:03:40.310Z,61.20
2022-12-09T21:06:15.584Z,63.70
2022-12-09T21:08:49.557Z,62.10
2022-12-09T21:11:24.918Z,60.80
2022-12-09T21:13:58.780Z,66.20
2022-12-09T21:16:37.498Z,60.20
2022-12-09T21:19:16.724Z,60.90
2022-12-09T21:21:53.401Z,62.20
2022-12-09T21:24:25.157Z,53.90
2022-12-09T21:26:57.530Z,61.80
2022-12-09T21:29:34.154Z,54.10
2022-12-09T21:32:03.056Z,56.60
2022-12-09T21:34:33.884Z,53.00
2022-12-09T21:37:05.913Z,54.10
2022-12-09T21:40:11.733Z,53.90
2022-12-09T21:42:43.837Z,57.20
2022-12-09T21:45:16.842Z,52.50
2022-12-09T21:47:51.713Z,48.50
2022-12-09T21:50:22.006Z,49.80
2022-12-09T21:52:52.260Z,45.00
2022-12-09T21:55:24.565Z,45.90
2022-12-09T21:57:57.834Z,50.40
2022-12-09T22:00:33.631Z,47.10
2022-12-09T22:03:11.913Z,44.10
2022-12-09T22:05:40.712Z,43.10
2022-12-09T22:08:31.965Z,42.80
2022-12-09T22:11:21.997Z,46.10
2022-12-09T22:14:01.084Z,45.40
2022-12-09T22:16:43.131Z,42.80
2022-12-09T22:19:21.189Z,40.30
2022-12-09T22:21:53.050Z,43.40
2022-12-09T22:24:35.909Z,41.70
2022-12-09T22:27:12.255Z,40.60
2022-12-09T22:29:55.468Z,41.50
2022-12-09T22:32:37.840Z,39.40
2022-12-09T22:35:16.160Z,39.50
2022-12-09T22:37:44.889Z,40.80
2022-12-09T22:40:23.088Z,42.50
2022-12-09T22:42:57.932Z,38.10
2022-12-09T22:45:27.993Z,36.30
2022-12-09T22:48:00.514Z,38.60
2022-12-09T22:50:50.174Z,35.40
2022-12-09T22:53:22.149Z,31.20
2022-12-09T22:55:56.658Z,36.60
2022-12-09T22:58:28.563Z,32.80
2022-12-09T23:03:32.443Z,38.20
2022-12-09T23:06:03.699Z,35.20
2022-12-09T23:08:41.027Z,32.80
2022-12-09T23:11:24.354Z,35.10
2022-12-09T23:13:55.701Z,32.60
2022-12-09T23:16:50.311Z,35.60
2022-12-09T23:19:26.469Z,32.40
2022-12-09T23:22:00.622Z,31.70
2022-12-09T23:24:36.003Z,33.00
2022-12-09T23:27:08.518Z,36.30
2022-12-09T23:29:43.018Z,34.00
2022-12-09T23:32:25.922Z,36.30
2022-12-09T23:35:07.077Z,32.90
2022-12-09T23:37:42.530Z,34.70
2022-12-09T23:40:12.019Z,34.40
2022-12-09T23:42:40.724Z,36.70
2022-12-09T23:45:15.615Z,34.30
2022-12-09T23:47:57.698Z,35.50
2022-12-09T23:50:29.447Z,35.60
2022-12-09T23:53:03.329Z,35.30
2022-12-09T23:55:35.228Z,34.20
2022-12-09T23:58:11.209Z,33.50
